createdAt,value
2022-09-06T00:01:16.277Z,78.13
2022-09-06T00:03:44.893Z,78.16
2022-09-06T00:06:19.006Z,78.18
2022-09-06T00:08:48.063Z,78.30
2022-09-06T00:11:16.822Z,78.14
2022-09-06T00:13:45.096Z,78.79
2022-09-06T00:16:18.920Z,78.47
2022-09-06T00:18:46.874Z,78.35
2022-09-06T00:21:25.574Z,78.44
2022-09-06T00:23:53.752Z,78.52
2022-09-06T00:26:22.427Z,78.45
2022-09-06T00:28:50.150Z,78.66
2022-09-06T00:31:24.579Z,78.70
2022-09-06T00:33:52.724Z,78.83
2022-09-06T00:36:21.535Z,78.61
2022-09-06T00:38:49.496Z,78.47
2022-09-06T00:41:17.566Z,78.83
2022-09-06T00:43:45.184Z,78.37
2022-09-06T00:46:27.055Z,78.73
2022-09-06T00:49:31.362Z,78.61
2022-09-06T00:52:13.751Z,78.72
2022-09-06T00:54:42.340Z,78.62
2022-09-06T00:57:10.684Z,78.71
2022-09-06T00:59:40.133Z,78.91
2022-09-06T01:02:09.538Z,79.11
2022-09-06T01:04:40.526Z,78.84
2022-09-06T01:07:14.054Z,78.88
2022-09-06T01:09:53.838Z,78.83
2022-09-06T01:12:31.195Z,79.05
2022-09-06T01:15:06.100Z,78.89
2022-09-06T01:17:52.521Z,78.91
2022-09-06T01:20:29.261Z,79.09
2022-09-06T01:23:15.161Z,79.11
2022-09-06T01:25:48.648Z,79.09
2022-09-06T01:28:22.253Z,79.16
2022-09-06T01:31:03.155Z,79.08
2022-09-06T01:33:54.436Z,79.26
2022-09-06T01:36:27.101Z,79.08
2022-09-06T01:38:54.689Z,79.20
2022-09-06T01:41:22.229Z,79.21
2022-09-06T01:43:52.679Z,79.27
2022-09-06T01:46:39.937Z,79.16
2022-09-06T01:49:20.599Z,79.13
2022-09-06T01:52:06.589Z,79.16
2022-09-06T01:54:40.101Z,79.13
2022-09-06T01:57:13.982Z,79.22
2022-09-06T02:00:03.885Z,79.12
2022-09-06T02:02:51.647Z,79.30
2022-09-06T02:05:35.067Z,79.20
2022-09-06T02:08:11.880Z,79.20
2022-09-06T02:10:43.361Z,79.54
2022-09-06T02:13:14.024Z,79.42
2022-09-06T02:15:54.348Z,79.31
2022-09-06T02:18:28.248Z,79.29
2022-09-06T02:20:59.073Z,79.34
2022-09-06T02:23:30.173Z,79.37
2022-09-06T02:26:04.556Z,79.73
2022-09-06T02:28:32.406Z,79.48
2022-09-06T02:31:04.499Z,79.54
2022-09-06T02:33:35.815Z,79.53
2022-09-06T02:36:07.420Z,79.56
2022-09-06T02:38:37.939Z,79.56
2022-09-06T02:41:06.552Z,79.75
2022-09-06T02:43:34.423Z,79.96
2022-09-06T02:46:02.284Z,79.92
2022-09-06T02:48:30.090Z,80.03
2022-09-06T02:50:57.726Z,80.22
2022-09-06T02:53:25.252Z,80.04
2022-09-06T02:55:53.311Z,80.32
2022-09-06T02:58:21.048Z,80.31
2022-09-06T03:00:51.280Z,80.43
2022-09-06T03:03:22.590Z,80.16
2022-09-06T03:05:51.641Z,80.18
2022-09-06T03:08:21.253Z,79.76
2022-09-06T03:10:54.272Z,80.02
2022-09-06T03:13:23.391Z,80.26
2022-09-06T03:15:57.216Z,80.30
2022-09-06T03:18:26.139Z,80.41
2022-09-06T03:20:56.178Z,80.24
2022-09-06T03:23:26.479Z,80.04
2022-09-06T03:25:54.364Z,80.19
2022-09-06T03:28:23.298Z,80.21
2022-09-06T03:30:51.985Z,80.27
2022-09-06T03:33:20.639Z,80.67
2022-09-06T03:35:56.413Z,80.70
2022-09-06T03:38:25.969Z,81.01
2022-09-06T03:40:54.153Z,80.86
2022-09-06T03:43:23.476Z,80.87
2022-09-06T03:45:53.578Z,81.02
2022-09-06T03:48:22.816Z,81.23
2022-09-06T03:50:54.278Z,81.18
2022-09-06T03:53:23.349Z,81.37
2022-09-06T03:55:53.258Z,81.28
2022-09-06T03:58:23.698Z,81.63
2022-09-06T04:01:04.568Z,81.65
2022-09-06T04:03:33.133Z,81.56
2022-09-06T04:06:01.120Z,81.69
2022-09-06T04:08:29.018Z,81.86
2022-09-06T04:10:57.835Z,82.08
2022-09-06T04:13:27.166Z,82.29
2022-09-06T04:15:55.230Z,82.42
2022-09-06T04:18:23.299Z,82.70
2022-09-06T04:20:52.993Z,82.63
2022-09-06T04:23:20.957Z,82.82
2022-09-06T04:25:50.191Z,82.79
2022-09-06T04:28:18.718Z,83.01
2022-09-06T04:30:55.546Z,83.17
2022-09-06T04:33:26.451Z,83.11
2022-09-06T04:35:56.984Z,83.32
2022-09-06T04:38:25.858Z,83.56
2022-09-06T04:40:55.580Z,82.80
2022-09-06T04:43:23.708Z,82.95
2022-09-06T04:45:51.638Z,83.43
2022-09-06T04:48:19.500Z,83.15
2022-09-06T04:50:47.065Z,83.16
2022-09-06T04:53:14.674Z,83.20
2022-09-06T04:55:42.175Z,83.15
2022-09-06T04:58:09.737Z,83.04
2022-09-06T05:00:38.868Z,83.37
2022-09-06T05:03:06.796Z,83.31
2022-09-06T05:05:35.894Z,83.42
2022-09-06T05:08:03.634Z,83.49
2022-09-06T05:10:31.120Z,83.48
2022-09-06T05:12:58.718Z,83.38
2022-09-06T05:15:26.310Z,83.36
2022-09-06T05:17:53.883Z,83.33
2022-09-06T05:20:21.816Z,83.73
2022-09-06T05:22:54.395Z,83.36
2022-09-06T05:25:22.206Z,83.43
2022-09-06T05:27:49.758Z,83.49
2022-09-06T05:30:18.439Z,83.84
2022-09-06T05:32:45.944Z,83.63
2022-09-06T05:35:13.632Z,83.64
2022-09-06T05:37:41.118Z,83.52
2022-09-06T05:40:09.300Z,83.80
2022-09-06T05:42:37.103Z,83.61
2022-09-06T05:45:06.866Z,83.77
2022-09-06T05:47:35.611Z,83.87
2022-09-06T05:50:03.746Z,83.68
2022-09-06T05:52:40.498Z,84.00
2022-09-06T05:55:16.150Z,83.93
2022-09-06T05:57:46.168Z,84.21
2022-09-06T06:00:14.230Z,84.06
2022-09-06T06:02:42.083Z,83.87
2022-09-06T06:05:09.865Z,84.21
2022-09-06T06:07:37.426Z,84.03
2022-09-06T06:10:05.413Z,84.04
2022-09-06T06:12:33.448Z,84.19
2022-09-06T06:15:01.011Z,84.06
2022-09-06T06:17:28.557Z,83.88
2022-09-06T06:19:56.092Z,84.17
2022-09-06T06:22:23.596Z,83.80
2022-09-06T06:24:51.174Z,84.05
2022-09-06T06:27:18.797Z,83.81
2022-09-06T06:29:46.341Z,83.83
2022-09-06T06:32:13.955Z,83.67
2022-09-06T06:34:41.547Z,83.52
2022-09-06T06:37:09.160Z,83.33
2022-09-06T06:39:37.169Z,83.24
2022-09-06T06:42:04.916Z,83.26
2022-09-06T06:44:46.792Z,82.80
2022-09-06T06:47:14.441Z,82.63
2022-09-06T06:49:42.014Z,82.61
2022-09-06T06:52:09.611Z,82.41
2022-09-06T06:54:37.603Z,82.27
2022-09-06T06:57:05.507Z,82.06
2022-09-06T06:59:33.243Z,81.77
2022-09-06T07:02:01.206Z,81.64
2022-09-06T07:04:28.868Z,81.56
2022-09-06T07:12:32.463Z,80.82
2022-09-06T07:15:00.310Z,80.20
2022-09-06T07:17:28.402Z,80.04
2022-09-06T07:22:39.738Z,79.41
2022-09-06T07:25:09.132Z,79.26
2022-09-06T07:30:11.910Z,78.71
2022-09-06T07:32:39.474Z,78.25
2022-09-06T07:35:07.604Z,77.74
2022-09-06T07:37:35.552Z,77.47
2022-09-06T07:40:04.393Z,76.80
2022-09-06T07:42:36.559Z,76.52
2022-09-06T07:45:05.516Z,75.99
2022-09-06T07:53:13.969Z,75.36
2022-09-06T07:55:43.416Z,75.09
2022-09-06T07:58:11.216Z,74.63
2022-09-06T08:00:41.326Z,74.01
2022-09-06T08:03:09.277Z,73.05
2022-09-06T08:11:14.195Z,72.05
2022-09-06T08:13:42.890Z,71.86
2022-09-06T08:16:12.549Z,71.77
2022-09-06T08:18:40.295Z,72.07
2022-09-06T08:21:13.424Z,72.01
2022-09-06T08:23:44.968Z,72.72
2022-09-06T08:26:12.973Z,72.86
2022-09-06T08:28:40.506Z,72.69
2022-09-06T08:31:10.211Z,72.82
2022-09-06T08:33:38.888Z,72.83
2022-09-06T08:36:07.335Z,73.04
2022-09-06T08:38:35.776Z,73.00
2022-09-06T08:41:44.721Z,73.23
2022-09-06T08:47:21.961Z,73.71
2022-09-06T08:49:54.953Z,73.76
2022-09-06T08:56:13.571Z,73.76
2022-09-06T08:58:44.567Z,74.22
2022-09-06T09:01:18.447Z,74.05
2022-09-06T09:03:47.188Z,73.95
2022-09-06T09:06:14.730Z,74.07
2022-09-06T09:09:14.648Z,74.02
2022-09-06T09:11:49.961Z,73.44
2022-09-06T09:14:17.651Z,73.10
2022-09-06T09:16:45.418Z,72.91
2022-09-06T09:19:13.618Z,72.72
2022-09-06T09:21:41.768Z,72.08
2022-09-06T09:24:12.330Z,72.22
2022-09-06T09:26:58.199Z,72.05
2022-09-06T09:29:29.401Z,72.19
2022-09-06T09:31:58.233Z,71.94
2022-09-06T09:34:33.985Z,72.13
2022-09-06T09:40:34.878Z,71.85
2022-09-06T09:43:30.883Z,71.83
2022-09-06T09:46:33.246Z,71.31
2022-09-06T09:49:28.727Z,70.03
2022-09-06T09:52:13.634Z,68.65
2022-09-06T09:54:44.569Z,67.15
2022-09-06T09:57:17.877Z,65.35
2022-09-06T09:59:58.387Z,64.40
2022-09-06T10:02:31.240Z,61.58
2022-09-06T10:05:04.924Z,58.10
2022-09-06T10:07:34.211Z,56.76
2022-09-06T10:10:11.167Z,53.88
2022-09-06T10:12:41.580Z,53.36
2022-09-06T10:15:33.082Z,51.86
2022-09-06T10:18:00.942Z,51.52
2022-09-06T10:20:38.406Z,51.36
2022-09-06T10:23:12.061Z,50.63
2022-09-06T10:25:48.904Z,50.07
2022-09-06T10:28:29.782Z,50.41
2022-09-06T10:31:22.418Z,51.50
2022-09-06T10:34:11.758Z,53.54
2022-09-06T10:36:44.579Z,55.00
2022-09-06T10:39:33.771Z,56.42
2022-09-06T10:42:22.403Z,58.04
2022-09-06T10:45:18.848Z,59.64
2022-09-06T10:47:49.390Z,60.65
2022-09-06T10:50:17.515Z,61.51
2022-09-06T10:52:48.866Z,62.42
2022-09-06T10:55:18.783Z,63.00
2022-09-06T11:00:47.487Z,64.38
2022-09-06T11:06:31.711Z,65.10
2022-09-06T11:09:17.363Z,65.16
2022-09-06T11:11:47.765Z,65.42
2022-09-06T11:14:15.957Z,65.43
2022-09-06T11:16:52.012Z,64.78
2022-09-06T11:19:28.674Z,64.58
2022-09-06T11:22:10.682Z,64.18
2022-09-06T11:24:49.353Z,64.18
2022-09-06T11:27:32.260Z,64.75
2022-09-06T11:30:01.761Z,65.12
2022-09-06T11:32:35.043Z,64.94
2022-09-06T11:35:20.606Z,65.36
2022-09-06T11:37:57.385Z,65.24
2022-09-06T11:40:36.612Z,64.69
2022-09-06T11:43:04.392Z,64.77
2022-09-06T11:45:45.922Z,64.50
2022-09-06T11:49:06.148Z,64.06
2022-09-06T11:51:38.032Z,64.09
2022-09-06T11:54:33.248Z,63.76
2022-09-06T11:57:15.410Z,63.38
2022-09-06T11:59:46.012Z,63.70
2022-09-06T12:05:07.379Z,64.18
2022-09-06T12:07:54.629Z,64.02
2022-09-06T12:10:31.364Z,64.16
2022-09-06T12:12:59.032Z,64.25
2022-09-06T12:15:32.974Z,64.01
2022-09-06T12:18:01.047Z,63.87
2022-09-06T12:20:54.428Z,63.11
2022-09-06T12:23:37.198Z,63.25
2022-09-06T12:26:07.008Z,63.52
2022-09-06T12:29:09.492Z,61.16
2022-09-06T12:31:43.651Z,60.99
2022-09-06T12:34:21.319Z,60.56
2022-09-06T12:37:01.255Z,59.63
2022-09-06T12:39:28.937Z,58.92
2022-09-06T12:42:01.442Z,58.45
2022-09-06T12:44:36.382Z,58.60
2022-09-06T12:47:14.400Z,58.58
2022-09-06T12:49:41.967Z,58.62
2022-09-06T12:52:12.457Z,58.48
2022-09-06T12:54:49.461Z,58.54
2022-09-06T12:57:23.586Z,58.20
2022-09-06T12:59:56.951Z,57.92
2022-09-06T13:02:35.588Z,57.15
2022-09-06T13:05:09.744Z,56.70
2022-09-06T13:07:45.121Z,56.40
2022-09-06T13:10:19.469Z,56.41
2022-09-06T13:12:51.114Z,56.59
2022-09-06T13:15:22.824Z,57.26
2022-09-06T13:17:50.632Z,58.05
2022-09-06T13:20:21.088Z,58.35
2022-09-06T13:22:51.304Z,58.97
2022-09-06T13:25:21.555Z,59.65
2022-09-06T13:27:51.509Z,60.25
2022-09-06T13:30:42.516Z,60.21
2022-09-06T13:33:41.194Z,61.29
2022-09-06T13:36:11.477Z,62.43
2022-09-06T13:38:39.048Z,63.43
2022-09-06T13:41:41.344Z,65.92
2022-09-06T13:44:11.665Z,67.68
2022-09-06T13:46:39.245Z,69.25
2022-09-06T13:49:07.632Z,70.71
2022-09-06T13:51:38.015Z,71.83
2022-09-06T13:54:10.598Z,72.91
2022-09-06T13:56:39.397Z,73.78
2022-09-06T13:59:09.885Z,74.38
2022-09-06T14:01:39.437Z,74.36
2022-09-06T14:04:07.696Z,75.10
2022-09-06T14:06:37.007Z,75.50
2022-09-06T14:09:07.636Z,75.76
2022-09-06T14:11:36.248Z,76.50
2022-09-06T14:14:04.353Z,76.78
2022-09-06T14:16:33.899Z,77.21
2022-09-06T14:19:01.795Z,77.88
2022-09-06T14:21:29.391Z,78.46
2022-09-06T14:24:03.336Z,78.77
2022-09-06T14:26:33.285Z,79.37
2022-09-06T14:29:01.034Z,80.04
2022-09-06T14:31:29.810Z,80.85
2022-09-06T14:33:58.146Z,81.36
2022-09-06T14:36:29.326Z,82.02
2022-09-06T14:38:58.679Z,83.34
2022-09-06T14:41:26.746Z,84.83
2022-09-06T14:43:57.276Z,85.64
2022-09-06T14:46:26.827Z,86.43
2022-09-06T14:49:00.855Z,86.55
2022-09-06T14:51:30.256Z,87.10
2022-09-06T14:54:02.026Z,87.44
2022-09-06T14:56:30.458Z,87.79
2022-09-06T14:58:59.963Z,88.10
2022-09-06T15:01:33.018Z,88.21
2022-09-06T15:04:10.133Z,88.64
2022-09-06T15:06:40.771Z,88.73
2022-09-06T15:09:11.492Z,88.80
2022-09-06T15:11:48.916Z,88.83
2022-09-06T15:14:22.542Z,89.04
2022-09-06T15:16:55.953Z,88.76
2022-09-06T15:19:25.107Z,88.99
2022-09-06T15:21:55.304Z,89.32
2022-09-06T15:24:23.341Z,88.94
2022-09-06T15:26:51.091Z,89.12
2022-09-06T15:29:20.472Z,89.43
2022-09-06T15:31:50.635Z,89.79
2022-09-06T15:34:20.196Z,89.65
2022-09-06T15:36:47.834Z,89.46
2022-09-06T15:39:15.545Z,89.97
2022-09-06T15:41:43.207Z,89.65
2022-09-06T15:44:13.106Z,89.63
2022-09-06T15:46:43.753Z,89.46
2022-09-06T15:49:14.772Z,89.84
2022-09-06T15:51:42.936Z,89.77
2022-09-06T15:54:12.056Z,89.65
2022-09-06T15:56:39.858Z,89.72
2022-09-06T15:59:07.966Z,89.55
2022-09-06T16:01:35.738Z,89.58
2022-09-06T16:04:06.233Z,89.78
2022-09-06T16:06:37.785Z,89.11
2022-09-06T16:09:17.748Z,89.48
2022-09-06T16:11:45.685Z,89.55
2022-09-06T16:14:15.474Z,89.90
2022-09-06T16:16:43.570Z,89.58
2022-09-06T16:19:12.740Z,89.78
2022-09-06T16:21:43.775Z,89.82
2022-09-06T16:24:13.325Z,89.37
2022-09-06T16:26:43.838Z,89.65
2022-09-06T16:29:13.382Z,89.14
2022-09-06T16:31:41.347Z,89.15
2022-09-06T16:34:10.312Z,89.53
2022-09-06T16:36:38.378Z,89.77
2022-09-06T16:39:07.351Z,89.59
2022-09-06T16:41:40.664Z,89.63
2022-09-06T16:44:10.277Z,89.53
2022-09-06T16:46:40.264Z,89.23
2022-09-06T16:49:08.599Z,89.00
2022-09-06T16:51:36.649Z,89.10
2022-09-06T16:54:04.600Z,89.36
2022-09-06T16:56:35.819Z,89.82
2022-09-06T16:59:06.554Z,89.84
2022-09-06T17:01:35.275Z,89.47
2022-09-06T17:04:04.140Z,89.33
2022-09-06T17:06:33.285Z,89.30
2022-09-06T17:09:00.842Z,89.13
2022-09-06T17:11:29.302Z,89.14
2022-09-06T17:13:58.193Z,88.87
2022-09-06T17:16:44.642Z,88.58
2022-09-06T17:19:14.017Z,88.51
2022-09-06T17:21:41.942Z,88.63
2022-09-06T17:24:09.727Z,88.92
2022-09-06T17:26:39.397Z,89.03
2022-09-06T17:29:07.786Z,88.93
2022-09-06T17:31:36.919Z,88.63
2022-09-06T17:34:05.379Z,89.00
2022-09-06T17:36:34.153Z,88.91
2022-09-06T17:39:08.199Z,88.96
2022-09-06T17:41:41.756Z,88.91
2022-09-06T17:44:11.663Z,88.84
2022-09-06T17:46:47.949Z,88.73
2022-09-06T17:49:28.338Z,89.10
2022-09-06T17:51:56.712Z,89.01
2022-09-06T17:54:24.592Z,89.04
2022-09-06T17:56:52.426Z,89.01
2022-09-06T17:59:20.138Z,89.00
2022-09-06T18:01:47.729Z,88.59
2022-09-06T18:04:16.134Z,88.80
2022-09-06T18:06:46.387Z,89.03
2022-09-06T18:09:17.668Z,88.82
2022-09-06T18:11:46.865Z,88.52
2022-09-06T18:14:17.562Z,88.53
2022-09-06T18:16:47.473Z,88.41
2022-09-06T18:19:16.324Z,88.57
2022-09-06T18:21:44.207Z,88.73
2022-09-06T18:24:13.864Z,88.67
2022-09-06T18:26:43.109Z,88.95
2022-09-06T18:29:16.771Z,88.74
2022-09-06T18:31:44.933Z,89.03
2022-09-06T18:34:12.743Z,88.89
2022-09-06T18:36:40.835Z,88.91
2022-09-06T18:39:08.745Z,88.79
2022-09-06T18:41:55.379Z,89.11
2022-09-06T18:44:23.146Z,89.03
2022-09-06T18:46:50.785Z,88.80
2022-09-06T18:49:18.513Z,88.54
2022-09-06T18:51:46.574Z,88.62
2022-09-06T18:54:14.778Z,89.16
2022-09-06T18:56:44.925Z,88.81
2022-09-06T18:59:13.961Z,88.86
2022-09-06T19:01:43.122Z,89.02
2022-09-06T19:04:12.280Z,88.89
2022-09-06T19:06:43.621Z,88.77
2022-09-06T19:09:14.389Z,88.98
2022-09-06T19:11:43.512Z,89.15
2022-09-06T19:14:11.640Z,88.48
2022-09-06T19:16:39.330Z,89.30
2022-09-06T19:19:09.006Z,88.70
2022-09-06T19:21:41.457Z,89.08
2022-09-06T19:24:12.994Z,88.79
2022-09-06T19:26:43.467Z,89.18
2022-09-06T19:29:18.875Z,89.30
2022-09-06T19:31:47.509Z,88.88
2022-09-06T19:34:16.233Z,89.52
2022-09-06T19:36:44.971Z,89.26
2022-09-06T19:39:14.963Z,89.06
2022-09-06T19:41:45.215Z,89.67
2022-09-06T19:44:14.713Z,89.38
2022-09-06T19:46:46.132Z,89.61
2022-09-06T19:49:19.682Z,89.22
2022-09-06T19:51:48.985Z,89.34
2022-09-06T19:54:17.390Z,89.51
2022-09-06T19:56:46.033Z,89.73
2022-09-06T19:59:14.805Z,89.66
2022-09-06T20:01:44.642Z,89.57
2022-09-06T20:04:13.493Z,89.58
2022-09-06T20:06:41.297Z,89.84
2022-09-06T20:09:10.734Z,90.12
2022-09-06T20:11:40.177Z,89.76
2022-09-06T20:14:08.640Z,89.50
2022-09-06T20:16:41.131Z,89.69
2022-09-06T20:19:10.788Z,89.93
2022-09-06T20:21:38.387Z,90.24
2022-09-06T20:24:06.197Z,90.29
2022-09-06T20:26:33.805Z,90.91
2022-09-06T20:29:03.220Z,90.82
2022-09-06T20:31:32.856Z,91.33
2022-09-06T20:34:02.070Z,91.53
2022-09-06T20:36:30.289Z,91.24
2022-09-06T20:38:57.904Z,91.42
2022-09-06T20:41:27.158Z,91.49
2022-09-06T20:43:59.598Z,91.37
2022-09-06T20:46:29.845Z,91.11
2022-09-06T20:48:59.888Z,91.51
2022-09-06T20:51:27.844Z,91.74
2022-09-06T20:53:58.145Z,91.41
2022-09-06T20:56:31.269Z,91.56
2022-09-06T20:59:01.178Z,91.85
2022-09-06T21:01:31.185Z,91.84
2022-09-06T21:04:00.381Z,91.49
2022-09-06T21:06:30.514Z,91.37
2022-09-06T21:08:58.342Z,91.31
2022-09-06T21:11:26.591Z,91.62
2022-09-06T21:13:56.435Z,91.28
2022-09-06T21:16:26.458Z,91.56
2022-09-06T21:18:56.381Z,91.37
2022-09-06T21:21:25.577Z,91.68
2022-09-06T21:23:54.107Z,91.51
2022-09-06T21:26:22.541Z,91.34
2022-09-06T21:28:50.661Z,91.22
2022-09-06T21:31:23.967Z,91.78
2022-09-06T21:33:53.848Z,91.35
2022-09-06T21:36:29.377Z,91.60
2022-09-06T21:39:02.080Z,91.70
2022-09-06T21:41:30.460Z,91.25
2022-09-06T21:43:59.825Z,91.75
2022-09-06T21:46:33.374Z,91.46
2022-09-06T21:49:08.044Z,91.38
2022-09-06T21:51:36.506Z,91.57
2022-09-06T21:54:05.127Z,91.00
2022-09-06T21:56:36.022Z,91.19
2022-09-06T21:59:05.114Z,91.32
2022-09-06T22:01:34.775Z,91.88
2022-09-06T22:04:03.435Z,91.25
2022-09-06T22:06:32.927Z,91.34
2022-09-06T22:09:04.536Z,91.79
2022-09-06T22:11:34.272Z,91.53
2022-09-06T22:14:04.801Z,91.50
2022-09-06T22:16:34.722Z,91.30
2022-09-06T22:19:04.908Z,91.40
2022-09-06T22:21:33.727Z,91.70
2022-09-06T22:24:04.007Z,91.15
2022-09-06T22:26:33.411Z,91.33
2022-09-06T22:29:03.649Z,91.16
2022-09-06T22:31:32.910Z,91.74
2022-09-06T22:34:01.048Z,91.76
2022-09-06T22:36:28.968Z,91.63
2022-09-06T22:38:57.721Z,91.49
2022-09-06T22:41:27.252Z,91.49
2022-09-06T22:43:55.214Z,90.87
2022-09-06T22:46:23.089Z,90.95
2022-09-06T22:48:50.778Z,90.77
2022-09-06T22:51:18.338Z,90.60
2022-09-06T22:56:27.351Z,91.04
2022-09-06T22:58:54.859Z,91.01
2022-09-06T23:01:22.513Z,90.92
2022-09-06T23:03:51.237Z,90.89
2022-09-06T23:06:18.860Z,91.24
2022-09-06T23:08:46.456Z,91.29
2022-09-06T23:11:16.551Z,90.72
2022-09-06T23:13:44.823Z,90.80
2022-09-06T23:16:15.345Z,91.74
2022-09-06T23:18:43.779Z,91.68
2022-09-06T23:21:22.329Z,91.82
2022-09-06T23:23:51.931Z,91.81
2022-09-06T23:26:22.941Z,91.72
2022-09-06T23:28:56.412Z,92.11
2022-09-06T23:31:26.095Z,91.93
2022-09-06T23:33:55.499Z,91.64
2022-09-06T23:36:23.844Z,91.68
2022-09-06T23:38:51.593Z,91.95
2022-09-06T23:41:19.287Z,92.28
2022-09-06T23:43:46.864Z,92.17
2022-09-06T23:46:17.153Z,91.98
2022-09-06T23:48:44.896Z,91.80
2022-09-06T23:51:13.014Z,92.40
2022-09-06T23:53:40.714Z,92.10
2022-09-06T23:56:08.567Z,92.31
2022-09-06T23:58:36.957Z,92.13
